createdAt,value
2023-08-13T00:00:47.836Z,9.55
2023-08-13T00:02:52.969Z,11.00
2023-08-13T00:04:58.159Z,6.93
2023-08-13T00:07:05.083Z,4.97
2023-08-13T00:09:11.259Z,9.25
2023-08-13T00:11:17.113Z,9.48
2023-08-13T00:13:24.963Z,8.13
2023-08-13T00:15:30.848Z,14.98
2023-08-13T00:17:38.739Z,8.18
2023-08-13T00:19:43.881Z,8.45
2023-08-13T00:22:02.183Z,9.98
2023-08-13T00:24:15.262Z,11.00
2023-08-13T00:26:18.079Z,10.25
2023-08-13T00:30:31.700Z,12.65
2023-08-13T00:32:36.788Z,10.95
2023-08-13T00:34:41.854Z,11.38
2023-08-13T00:36:48.679Z,6.50
2023-08-13T00:38:56.766Z,13.82
2023-08-13T00:41:01.649Z,13.40
2023-08-13T00:43:06.719Z,9.55
2023-08-13T00:45:15.362Z,10.25
2023-08-13T00:47:20.776Z,7.90
2023-08-13T00:49:25.819Z,7.90
2023-08-13T00:51:31.341Z,10.25
2023-08-13T00:53:41.022Z,9.50
2023-08-13T00:55:47.770Z,7.97
2023-08-13T00:57:55.286Z,12.43
2023-08-13T01:00:01.613Z,9.63
2023-08-13T01:02:10.153Z,12.02
2023-08-13T01:04:15.187Z,11.23
2023-08-13T01:06:30.851Z,10.40
2023-08-13T01:08:43.286Z,5.72
2023-08-13T01:10:52.606Z,11.88
2023-08-13T01:13:08.516Z,7.78
2023-08-13T01:15:19.098Z,8.07
2023-08-13T01:17:33.320Z,11.55
2023-08-13T01:19:38.906Z,8.05
2023-08-13T01:21:44.276Z,11.05
2023-08-13T01:23:52.052Z,7.82
2023-08-13T01:26:01.840Z,11.63
2023-08-13T01:28:16.486Z,11.65
2023-08-13T01:30:27.068Z,10.40
2023-08-13T01:32:37.990Z,12.40
2023-08-13T01:34:44.045Z,6.68
2023-08-13T01:36:53.205Z,8.27
2023-08-13T01:39:01.807Z,9.25
2023-08-13T01:41:08.475Z,10.07
2023-08-13T01:43:13.838Z,7.05
2023-08-13T01:45:18.769Z,9.00
2023-08-13T01:47:26.045Z,12.77
2023-08-13T01:49:30.965Z,10.20
2023-08-13T01:51:35.902Z,12.00
2023-08-13T01:53:40.906Z,10.18
2023-08-13T01:55:48.547Z,9.98
2023-08-13T01:57:53.534Z,7.97
2023-08-13T01:59:59.077Z,9.15
2023-08-13T02:02:04.228Z,9.75
2023-08-13T02:04:10.005Z,6.25
2023-08-13T02:06:14.977Z,10.90
2023-08-13T02:08:20.070Z,7.20
2023-08-13T02:10:25.192Z,9.52
2023-08-13T02:12:33.472Z,7.95
2023-08-13T02:14:38.621Z,10.63
2023-08-13T02:16:43.826Z,8.27
2023-08-13T02:18:48.941Z,7.25
2023-08-13T02:20:57.011Z,7.93
2023-08-13T02:23:01.927Z,10.45
2023-08-13T02:25:05.041Z,10.60
2023-08-13T02:27:10.072Z,9.23
2023-08-13T02:29:17.871Z,6.93
2023-08-13T02:31:22.898Z,10.43
2023-08-13T02:33:27.966Z,11.02
2023-08-13T02:35:34.474Z,7.70
2023-08-13T02:37:39.766Z,8.23
2023-08-13T02:39:44.854Z,10.60
2023-08-13T02:41:50.019Z,11.23
2023-08-13T02:43:56.168Z,8.48
2023-08-13T02:46:04.155Z,9.48
2023-08-13T02:48:09.839Z,6.88
2023-08-13T02:50:15.444Z,10.10
2023-08-13T02:52:21.216Z,7.03
2023-08-13T02:54:26.169Z,5.47
2023-08-13T02:56:31.239Z,9.68
2023-08-13T02:58:36.381Z,10.70
2023-08-13T03:00:41.507Z,8.57
2023-08-13T03:02:51.316Z,7.43
2023-08-13T03:04:56.470Z,9.75
2023-08-13T03:07:01.693Z,8.55
2023-08-13T03:09:06.906Z,11.45
2023-08-13T03:11:12.019Z,10.05
2023-08-13T03:13:17.127Z,10.43
2023-08-13T03:15:19.764Z,5.20
2023-08-13T03:17:24.652Z,9.73
2023-08-13T03:19:32.243Z,10.10
2023-08-13T03:21:34.622Z,10.18
2023-08-13T03:23:39.366Z,10.07
2023-08-13T03:25:44.261Z,7.90
2023-08-13T03:27:50.509Z,7.68
2023-08-13T03:29:57.386Z,8.48
2023-08-13T03:32:02.388Z,6.88
2023-08-13T03:34:10.622Z,7.65
2023-08-13T03:36:18.234Z,8.20
2023-08-13T03:38:23.162Z,10.65
2023-08-13T03:40:28.198Z,10.45
2023-08-13T03:42:34.362Z,7.13
2023-08-13T03:44:39.177Z,8.77
2023-08-13T03:46:41.650Z,7.97
2023-08-13T03:48:50.095Z,12.93
2023-08-13T03:50:54.925Z,9.73
2023-08-13T03:53:02.485Z,8.05
2023-08-13T03:55:08.783Z,10.70
2023-08-13T03:57:13.763Z,6.03
2023-08-13T03:59:19.014Z,7.53
2023-08-13T04:01:27.000Z,12.45
2023-08-13T04:03:29.507Z,9.73
2023-08-13T04:05:34.510Z,10.65
2023-08-13T04:07:39.468Z,11.73
2023-08-13T04:09:47.232Z,8.20
2023-08-13T04:11:52.121Z,9.00
2023-08-13T04:13:57.153Z,7.82
2023-08-13T04:16:02.274Z,8.68
2023-08-13T04:18:08.606Z,5.25
2023-08-13T04:20:14.820Z,10.73
2023-08-13T04:22:22.143Z,6.95
2023-08-13T04:24:27.503Z,8.35
2023-08-13T04:26:35.083Z,11.40
2023-08-13T04:28:40.205Z,11.35
2023-08-13T04:30:45.242Z,13.07
2023-08-13T04:32:54.931Z,12.52
2023-08-13T04:35:00.410Z,9.25
2023-08-13T04:37:05.384Z,6.50
2023-08-13T04:39:10.356Z,8.52
2023-08-13T04:41:15.336Z,9.15
2023-08-13T04:43:23.035Z,7.88
2023-08-13T04:45:28.214Z,9.73
2023-08-13T04:47:33.774Z,6.60
2023-08-13T04:49:38.855Z,11.32
2023-08-13T04:51:44.009Z,10.00
2023-08-13T04:53:52.076Z,9.70
2023-08-13T04:55:54.481Z,6.40
2023-08-13T04:57:59.678Z,11.05
2023-08-13T05:00:10.304Z,11.95
2023-08-13T05:02:15.544Z,10.57
2023-08-13T05:04:21.212Z,11.68
2023-08-13T05:06:26.359Z,12.02
2023-08-13T05:08:31.332Z,9.68
2023-08-13T05:10:37.347Z,10.88
2023-08-13T05:12:42.440Z,10.82
2023-08-13T05:14:47.854Z,9.93
2023-08-13T05:16:55.863Z,10.10
2023-08-13T05:19:00.858Z,8.50
2023-08-13T05:21:07.194Z,10.02
2023-08-13T05:23:12.763Z,5.65
2023-08-13T05:25:18.079Z,13.35
2023-08-13T05:27:23.253Z,8.13
2023-08-13T05:29:31.446Z,9.93
2023-08-13T05:31:46.439Z,7.90
2023-08-13T05:33:59.171Z,7.82
2023-08-13T05:36:01.944Z,9.15
2023-08-13T05:40:13.510Z,7.40
2023-08-13T05:42:18.646Z,10.50
2023-08-13T05:44:26.990Z,10.88
2023-08-13T05:46:32.136Z,10.70
2023-08-13T05:48:37.451Z,9.18
2023-08-13T05:50:45.424Z,7.60
2023-08-13T05:52:50.372Z,8.60
2023-08-13T05:54:55.285Z,9.10
2023-08-13T05:57:02.069Z,8.18
2023-08-13T05:59:07.830Z,8.85
2023-08-13T06:01:13.276Z,7.80
2023-08-13T06:03:18.134Z,10.68
2023-08-13T06:05:23.229Z,6.57
2023-08-13T06:07:30.899Z,7.03
2023-08-13T06:09:37.807Z,7.30
2023-08-13T06:11:42.680Z,9.82
2023-08-13T06:13:47.992Z,6.18
2023-08-13T06:15:52.950Z,10.50
2023-08-13T06:17:57.887Z,7.15
2023-08-13T06:20:05.216Z,8.98
2023-08-13T06:22:10.298Z,6.10
2023-08-13T06:24:17.780Z,7.50
2023-08-13T06:26:22.852Z,8.07
2023-08-13T06:28:27.910Z,8.50
2023-08-13T06:30:33.515Z,7.35
2023-08-13T06:32:38.787Z,7.65
2023-08-13T06:34:43.868Z,6.15
2023-08-13T06:36:48.773Z,8.07
2023-08-13T06:38:54.569Z,7.20
2023-08-13T06:41:08.153Z,4.57
2023-08-13T06:43:14.104Z,6.97
2023-08-13T06:45:21.148Z,7.72
2023-08-13T06:47:26.239Z,7.18
2023-08-13T06:49:31.308Z,6.50
2023-08-13T06:51:36.391Z,8.52
2023-08-13T06:53:44.787Z,7.45
2023-08-13T06:55:52.279Z,7.03
2023-08-13T06:58:00.369Z,8.60
2023-08-13T07:00:07.211Z,6.80
2023-08-13T07:02:12.428Z,9.60
2023-08-13T07:04:17.612Z,7.70
2023-08-13T07:06:22.754Z,5.20
2023-08-13T07:08:27.825Z,7.13
2023-08-13T07:10:36.148Z,4.43
2023-08-13T07:12:41.466Z,5.57
2023-08-13T07:14:49.565Z,8.35
2023-08-13T07:16:57.365Z,6.93
2023-08-13T07:19:02.829Z,9.07
2023-08-13T07:21:08.344Z,6.63
2023-08-13T07:23:13.392Z,6.40
2023-08-13T07:25:15.987Z,6.93
2023-08-13T07:27:26.803Z,5.60
2023-08-13T07:29:37.500Z,6.57
2023-08-13T07:31:46.765Z,5.93
2023-08-13T07:33:53.298Z,6.28
2023-08-13T07:35:58.725Z,6.93
2023-08-13T07:38:06.943Z,7.72
2023-08-13T07:40:17.553Z,2.95
2023-08-13T07:42:22.299Z,4.15
2023-08-13T07:44:27.539Z,6.97
2023-08-13T07:46:33.796Z,8.65
2023-08-13T07:48:41.503Z,8.52
2023-08-13T07:50:49.565Z,6.18
2023-08-13T07:52:54.645Z,3.90
2023-08-13T07:54:59.777Z,6.30
2023-08-13T07:57:07.272Z,4.53
2023-08-13T07:59:12.633Z,4.40
2023-08-13T08:01:18.775Z,3.22
2023-08-13T08:03:24.396Z,7.45
2023-08-13T08:05:32.729Z,4.60
2023-08-13T08:07:37.626Z,5.90
2023-08-13T08:09:42.688Z,2.30
2023-08-13T08:11:47.721Z,4.53
2023-08-13T08:13:52.774Z,4.40
2023-08-13T08:16:01.017Z,4.32
2023-08-13T08:18:06.017Z,6.22
2023-08-13T08:20:12.169Z,5.15
2023-08-13T08:22:20.079Z,8.68
2023-08-13T08:24:25.493Z,3.83
2023-08-13T08:26:33.518Z,4.93
2023-08-13T08:28:41.519Z,5.90
2023-08-13T08:30:49.444Z,4.18
2023-08-13T08:32:57.103Z,5.13
2023-08-13T08:35:04.977Z,4.75
2023-08-13T08:37:12.379Z,6.70
2023-08-13T08:39:23.183Z,3.60
2023-08-13T08:41:44.789Z,4.13
2023-08-13T08:44:10.289Z,5.30
2023-08-13T08:46:21.610Z,4.13
2023-08-13T08:48:29.554Z,3.17
2023-08-13T08:50:35.084Z,4.10
2023-08-13T08:52:45.868Z,4.30
2023-08-13T08:54:57.865Z,3.53
2023-08-13T08:57:05.673Z,3.00
2023-08-13T08:59:10.901Z,6.45
2023-08-13T09:01:15.869Z,5.07
2023-08-13T09:03:21.137Z,7.18
2023-08-13T09:05:28.450Z,9.98
2023-08-13T09:07:41.776Z,7.38
2023-08-13T09:09:53.904Z,6.32
2023-08-13T09:12:01.962Z,6.80
2023-08-13T09:14:08.725Z,5.47
2023-08-13T09:16:15.462Z,4.53
2023-08-13T09:18:23.866Z,4.15
2023-08-13T09:20:36.380Z,6.32
2023-08-13T09:22:42.010Z,4.90
2023-08-13T09:24:52.301Z,4.82
2023-08-13T09:26:57.498Z,2.83
2023-08-13T09:29:10.215Z,9.15
2023-08-13T09:31:17.524Z,3.78
2023-08-13T09:33:33.845Z,8.05
2023-08-13T09:35:45.507Z,5.63
2023-08-13T09:37:54.965Z,9.85
2023-08-13T09:40:00.614Z,7.88
2023-08-13T09:42:17.457Z,2.42
2023-08-13T09:44:28.222Z,6.50
2023-08-13T09:46:35.548Z,3.40
2023-08-13T09:48:41.316Z,3.95
2023-08-13T09:50:51.372Z,3.75
2023-08-13T09:52:58.376Z,6.32
2023-08-13T09:55:11.510Z,3.83
2023-08-13T09:57:22.205Z,2.85
2023-08-13T09:59:41.887Z,6.57
2023-08-13T10:01:47.999Z,3.13
2023-08-13T10:03:57.206Z,3.97
2023-08-13T10:06:02.558Z,3.45
2023-08-13T10:08:11.892Z,3.10
2023-08-13T10:10:28.037Z,4.53
2023-08-13T10:12:41.418Z,3.08
2023-08-13T10:14:52.430Z,4.03
2023-08-13T10:17:01.927Z,3.88
2023-08-13T10:19:10.646Z,1.30
2023-08-13T10:21:14.311Z,5.80
2023-08-13T10:23:21.160Z,3.80
2023-08-13T10:25:35.713Z,3.40
2023-08-13T10:27:42.603Z,2.35
2023-08-13T10:29:50.367Z,4.93
2023-08-13T10:31:59.603Z,3.13
2023-08-13T10:34:04.037Z,3.58
2023-08-13T10:36:13.738Z,1.98
2023-08-13T10:38:21.941Z,2.70
2023-08-13T10:40:26.925Z,2.15
2023-08-13T10:42:56.150Z,4.65
2023-08-13T10:45:06.773Z,1.95
2023-08-13T10:47:17.191Z,2.78
2023-08-13T10:49:22.190Z,3.40
2023-08-13T10:51:31.669Z,2.67
2023-08-13T10:53:40.621Z,5.35
2023-08-13T10:55:45.396Z,4.50
2023-08-13T10:57:54.695Z,1.77
2023-08-13T11:00:01.182Z,3.15
2023-08-13T11:02:24.581Z,4.43
2023-08-13T11:04:30.094Z,3.15
2023-08-13T11:06:36.525Z,3.95
2023-08-13T11:08:47.946Z,4.68
2023-08-13T11:10:55.510Z,1.85
2023-08-13T11:13:02.246Z,2.35
2023-08-13T11:15:11.817Z,2.60
2023-08-13T11:17:16.835Z,4.00
2023-08-13T11:19:22.117Z,2.63
2023-08-13T11:21:27.755Z,3.75
2023-08-13T11:23:36.135Z,3.45
2023-08-13T11:25:41.203Z,5.82
2023-08-13T11:27:46.196Z,3.63
2023-08-13T11:29:51.429Z,5.38
2023-08-13T11:31:56.455Z,4.40
2023-08-13T11:33:58.874Z,3.75
2023-08-13T11:38:12.189Z,4.28
2023-08-13T11:40:19.655Z,4.93
2023-08-13T11:42:25.091Z,6.07
2023-08-13T11:44:34.646Z,7.93
2023-08-13T11:46:58.816Z,3.70
2023-08-13T11:49:05.469Z,4.72
2023-08-13T11:51:25.190Z,2.97
2023-08-13T11:53:30.596Z,4.70
2023-08-13T11:55:36.566Z,6.30
2023-08-13T11:57:43.070Z,4.22
2023-08-13T11:59:52.578Z,9.95
2023-08-13T12:01:58.097Z,6.47
2023-08-13T12:04:06.047Z,6.70
2023-08-13T12:06:12.259Z,7.32
2023-08-13T12:08:20.118Z,6.07
2023-08-13T12:10:28.293Z,4.50
2023-08-13T12:12:33.837Z,5.78
2023-08-13T12:14:52.166Z,4.90
2023-08-13T12:17:01.181Z,8.60
2023-08-13T12:19:09.079Z,6.05
2023-08-13T12:21:12.114Z,10.00
2023-08-13T12:23:19.844Z,7.22
2023-08-13T12:25:25.284Z,5.43
2023-08-13T12:27:30.757Z,8.15
2023-08-13T12:29:46.596Z,6.55
2023-08-13T12:31:51.800Z,6.32
2023-08-13T12:33:57.033Z,7.85
2023-08-13T12:36:02.143Z,4.22
2023-08-13T12:38:07.980Z,3.70
2023-08-13T12:40:16.008Z,1.70
2023-08-13T12:42:21.429Z,1.83
2023-08-13T12:44:27.252Z,3.60
2023-08-13T12:46:32.117Z,1.30
2023-08-13T12:48:39.203Z,2.38
2023-08-13T12:50:44.198Z,4.80
2023-08-13T12:52:49.380Z,2.15
2023-08-13T12:54:52.310Z,2.58
2023-08-13T12:59:04.832Z,3.25
2023-08-13T13:01:09.803Z,4.32
2023-08-13T13:03:13.278Z,3.15
2023-08-13T13:05:18.260Z,2.65
2023-08-13T13:07:27.548Z,1.33
2023-08-13T13:09:33.070Z,2.45
2023-08-13T13:11:38.653Z,1.35
2023-08-13T13:13:47.414Z,1.95
2023-08-13T13:15:52.594Z,2.33
2023-08-13T13:17:57.940Z,3.22
2023-08-13T13:20:11.706Z,1.38
2023-08-13T13:22:17.391Z,1.02
2023-08-13T13:24:20.349Z,2.67
2023-08-13T13:28:30.786Z,2.22
2023-08-13T13:30:39.436Z,1.42
2023-08-13T13:32:46.497Z,1.27
2023-08-13T13:34:55.828Z,1.20
2023-08-13T13:37:00.775Z,3.17
2023-08-13T13:39:06.506Z,2.35
2023-08-13T13:41:12.191Z,3.75
2023-08-13T13:43:17.432Z,2.95
2023-08-13T13:45:23.851Z,3.47
2023-08-13T13:47:32.141Z,2.30
2023-08-13T13:49:38.561Z,3.28
2023-08-13T13:51:44.216Z,5.55
2023-08-13T13:53:50.562Z,3.70
2023-08-13T13:56:01.407Z,2.33
2023-08-13T13:58:10.367Z,3.13
2023-08-13T14:00:17.027Z,4.20
2023-08-13T14:02:25.027Z,2.60
2023-08-13T14:04:33.151Z,1.58
2023-08-13T14:06:38.170Z,2.33
2023-08-13T14:08:46.184Z,2.67
2023-08-13T14:10:53.680Z,1.33
2023-08-13T14:12:59.193Z,0.90
2023-08-13T14:15:07.275Z,5.55
2023-08-13T14:17:13.042Z,2.63
2023-08-13T14:19:18.864Z,3.67
2023-08-13T14:21:26.911Z,2.15
2023-08-13T14:23:31.891Z,4.88
2023-08-13T14:25:37.282Z,4.22
2023-08-13T14:27:42.456Z,1.85
2023-08-13T14:29:47.687Z,3.35
2023-08-13T14:31:52.794Z,1.17
2023-08-13T14:34:00.876Z,3.92
2023-08-13T14:36:06.125Z,1.65
2023-08-13T14:38:13.930Z,2.05
2023-08-13T14:40:19.345Z,1.45
2023-08-13T14:42:27.434Z,1.83
2023-08-13T14:44:29.594Z,1.50
2023-08-13T14:46:35.087Z,2.75
2023-08-13T14:48:40.037Z,2.63
2023-08-13T14:50:44.918Z,3.58
2023-08-13T14:52:52.296Z,2.00
2023-08-13T14:55:01.133Z,9.40
2023-08-13T14:57:06.572Z,1.88
2023-08-13T14:59:12.286Z,2.85
2023-08-13T15:01:21.079Z,1.27
2023-08-13T15:03:28.347Z,1.17
2023-08-13T15:05:35.956Z,0.73
2023-08-13T15:07:44.037Z,1.02
2023-08-13T15:09:49.371Z,10.20
2023-08-13T15:11:57.469Z,2.75
2023-08-13T15:14:00.134Z,1.60
2023-08-13T15:16:05.556Z,3.90
2023-08-13T15:18:11.454Z,1.38
2023-08-13T15:20:16.795Z,3.22
2023-08-13T15:22:21.941Z,4.65
2023-08-13T15:24:30.227Z,3.97
2023-08-13T15:26:35.442Z,1.20
2023-08-13T15:28:41.194Z,1.38
2023-08-13T15:30:46.909Z,7.15
2023-08-13T15:32:52.967Z,6.65
2023-08-13T15:34:57.928Z,2.00
2023-08-13T15:37:04.498Z,3.13
2023-08-13T15:39:10.450Z,1.10
2023-08-13T15:41:16.632Z,1.40
2023-08-13T15:43:19.642Z,1.58
2023-08-13T15:45:30.639Z,3.35
2023-08-13T15:47:36.545Z,4.32
2023-08-13T15:49:41.772Z,1.58
2023-08-13T15:51:51.641Z,3.05
2023-08-13T15:53:56.773Z,3.15
2023-08-13T15:56:01.861Z,9.32
2023-08-13T15:58:09.882Z,9.63
2023-08-13T16:00:18.395Z,3.15
2023-08-13T16:02:26.116Z,9.15
2023-08-13T16:04:31.475Z,7.03
2023-08-13T16:06:36.384Z,3.90
2023-08-13T16:08:42.603Z,9.70
2023-08-13T16:10:47.852Z,2.05
2023-08-13T16:12:56.310Z,4.07
2023-08-13T16:15:10.598Z,3.40
2023-08-13T16:17:16.895Z,7.85
2023-08-13T16:19:26.661Z,3.40
2023-08-13T16:21:31.763Z,2.78
2023-08-13T16:23:36.927Z,4.35
2023-08-13T16:25:42.979Z,3.92
2023-08-13T16:27:48.049Z,9.30
2023-08-13T16:30:51.522Z,4.90
2023-08-13T16:32:41.643Z,5.13
2023-08-13T16:35:30.587Z,6.88
2023-08-13T16:37:39.255Z,1.52
2023-08-13T16:39:44.402Z,2.83
2023-08-13T16:41:59.652Z,3.08
2023-08-13T16:44:36.036Z,4.50
2023-08-13T16:46:41.001Z,4.50
2023-08-13T16:48:47.237Z,4.63
2023-08-13T16:50:52.266Z,5.60
2023-08-13T16:53:02.234Z,5.53
2023-08-13T16:55:08.254Z,10.43
2023-08-13T16:57:16.787Z,5.85
2023-08-13T16:59:23.684Z,2.47
2023-08-13T17:01:29.088Z,3.33
2023-08-13T17:03:31.887Z,4.28
2023-08-13T17:05:37.081Z,5.75
2023-08-13T17:07:42.739Z,3.45
2023-08-13T17:09:52.774Z,4.28
2023-08-13T17:11:58.871Z,3.55
2023-08-13T17:14:05.902Z,6.28
2023-08-13T17:16:10.877Z,6.00
2023-08-13T17:18:16.126Z,3.92
2023-08-13T17:20:25.000Z,4.43
2023-08-13T17:22:30.474Z,3.95
2023-08-13T17:24:35.767Z,5.07
2023-08-13T17:26:45.053Z,10.48
2023-08-13T17:28:50.333Z,7.10
2023-08-13T17:30:58.055Z,4.45
2023-08-13T17:33:06.587Z,2.45
2023-08-13T17:35:12.277Z,4.10
2023-08-13T17:37:17.543Z,7.03
2023-08-13T17:39:23.004Z,8.38
2023-08-13T17:41:28.297Z,8.32
2023-08-13T17:43:33.382Z,6.25
2023-08-13T17:45:41.514Z,4.40
2023-08-13T17:47:47.915Z,5.93
2023-08-13T17:49:52.881Z,3.75
2023-08-13T17:51:57.838Z,5.15
2023-08-13T17:54:05.630Z,5.82
2023-08-13T17:56:08.010Z,5.30
2023-08-13T17:58:13.367Z,5.82
2023-08-13T18:00:25.992Z,4.43
2023-08-13T18:02:31.066Z,5.63
2023-08-13T18:04:36.825Z,6.25
2023-08-13T18:06:43.031Z,4.82
2023-08-13T18:08:53.644Z,3.03
2023-08-13T18:11:09.799Z,5.25
2023-08-13T18:13:14.879Z,3.72
2023-08-13T18:15:22.907Z,7.63
2023-08-13T18:17:32.863Z,4.95
2023-08-13T18:19:38.063Z,4.35
2023-08-13T18:21:43.200Z,5.22
2023-08-13T18:23:48.122Z,5.30
2023-08-13T18:25:53.300Z,4.50
2023-08-13T18:28:02.708Z,5.75
2023-08-13T18:30:14.855Z,4.38
2023-08-13T18:32:29.191Z,4.13
2023-08-13T18:34:34.832Z,5.45
2023-08-13T18:36:41.101Z,5.03
2023-08-13T18:38:46.410Z,4.25
2023-08-13T18:40:52.672Z,5.03
2023-08-13T18:42:57.850Z,5.88
2023-08-13T18:45:06.652Z,5.88
2023-08-13T18:47:11.838Z,8.43
2023-08-13T18:49:19.560Z,5.93
2023-08-13T18:51:24.982Z,6.22
2023-08-13T18:53:32.707Z,4.80
2023-08-13T18:55:37.820Z,4.03
2023-08-13T18:57:42.968Z,5.70
2023-08-13T18:59:47.983Z,4.65
2023-08-13T19:01:55.769Z,3.58
2023-08-13T19:04:01.152Z,5.70
2023-08-13T19:06:09.144Z,7.32
2023-08-13T19:08:14.817Z,7.70
2023-08-13T19:10:24.875Z,5.43
2023-08-13T19:12:30.672Z,1.95
2023-08-13T19:14:35.828Z,5.90
2023-08-13T19:16:41.285Z,4.82
2023-08-13T19:18:52.250Z,7.80
2023-08-13T19:20:57.361Z,6.35
2023-08-13T19:23:06.660Z,5.40
2023-08-13T19:25:12.272Z,4.32
2023-08-13T19:27:20.471Z,3.42
2023-08-13T19:29:25.988Z,6.25
2023-08-13T19:31:30.965Z,5.30
2023-08-13T19:33:36.150Z,5.32
2023-08-13T19:35:42.098Z,6.47
2023-08-13T19:37:47.349Z,5.22
2023-08-13T19:39:55.217Z,4.55
2023-08-13T19:42:05.878Z,4.35
2023-08-13T19:44:16.172Z,7.93
2023-08-13T19:46:31.901Z,4.57
2023-08-13T19:48:37.524Z,4.05
2023-08-13T19:50:42.750Z,3.83
2023-08-13T20:08:49.743Z,5.70
2023-08-13T20:10:57.840Z,5.82
2023-08-13T20:13:03.755Z,4.13
2023-08-13T20:15:10.857Z,5.10
2023-08-13T20:17:16.157Z,6.05
2023-08-13T20:19:24.547Z,4.80
2023-08-13T20:21:29.747Z,7.78
2023-08-13T20:23:34.859Z,5.65
2023-08-13T20:25:43.111Z,7.18
2023-08-13T20:27:48.231Z,5.68
2023-08-13T20:29:53.294Z,4.82
2023-08-13T20:32:01.708Z,4.32
2023-08-13T20:34:07.637Z,5.60
2023-08-13T20:36:12.961Z,5.80
2023-08-13T20:38:18.212Z,5.38
2023-08-13T20:40:23.746Z,6.38
2023-08-13T20:42:31.533Z,3.15
2023-08-13T20:44:36.881Z,3.95
2023-08-13T20:46:39.658Z,5.75
2023-08-13T20:48:44.804Z,5.40
2023-08-13T20:50:54.755Z,4.50
2023-08-13T20:52:59.695Z,5.13
2023-08-13T20:55:08.273Z,2.92
2023-08-13T20:57:13.962Z,4.07
2023-08-13T20:59:23.569Z,5.18
2023-08-13T21:01:30.196Z,6.40
2023-08-13T21:03:35.336Z,8.27
2023-08-13T21:05:44.034Z,4.88
2023-08-13T21:07:52.008Z,6.72
2023-08-13T21:09:57.271Z,5.05
2023-08-13T21:12:02.263Z,8.70
2023-08-13T21:14:08.207Z,6.10
2023-08-13T21:16:16.367Z,4.20
2023-08-13T21:18:22.443Z,2.35
2023-08-13T21:20:27.519Z,6.07
2023-08-13T21:22:32.583Z,4.30
2023-08-13T21:24:37.915Z,5.20
2023-08-13T21:26:45.740Z,2.42
2023-08-13T21:28:51.045Z,6.25
2023-08-13T21:30:56.741Z,4.20
2023-08-13T21:33:07.965Z,5.68
2023-08-13T21:35:13.627Z,4.40
2023-08-13T21:37:18.938Z,6.43
2023-08-13T21:39:27.228Z,3.88
2023-08-13T21:41:44.474Z,6.75
2023-08-13T21:43:49.592Z,8.07
2023-08-13T21:45:57.440Z,5.32
2023-08-13T21:48:05.545Z,6.18
2023-08-13T21:52:36.047Z,6.95
2023-08-13T21:54:41.098Z,7.50
2023-08-13T21:56:48.472Z,7.32
2023-08-13T21:58:53.663Z,7.53
2023-08-13T22:00:59.489Z,8.15
2023-08-13T22:03:16.046Z,8.50
2023-08-13T22:05:24.594Z,6.45
2023-08-13T22:07:30.097Z,6.15
2023-08-13T22:09:35.280Z,4.05
2023-08-13T22:11:40.848Z,8.07
2023-08-13T22:13:46.074Z,7.10
2023-08-13T22:15:56.828Z,5.38
2023-08-13T22:18:02.128Z,4.72
2023-08-13T22:20:12.232Z,3.72
2023-08-13T22:22:15.187Z,7.63
2023-08-13T22:24:20.513Z,4.38
2023-08-13T22:26:26.159Z,4.85
2023-08-13T22:28:31.218Z,6.32
2023-08-13T22:30:36.435Z,7.40
2023-08-13T22:32:41.986Z,8.70
2023-08-13T22:34:47.331Z,4.30
2023-08-13T22:36:55.321Z,5.18
2023-08-13T22:39:00.866Z,4.50
2023-08-13T22:41:06.135Z,4.65
2023-08-13T22:43:11.425Z,4.82
2023-08-13T22:45:14.030Z,3.85
2023-08-13T22:47:19.046Z,5.45
2023-08-13T22:49:31.807Z,6.30
2023-08-13T22:51:36.884Z,6.38
2023-08-13T22:53:45.008Z,3.50
2023-08-13T22:55:47.516Z,3.78
2023-08-13T22:57:52.649Z,5.65
2023-08-13T22:59:57.625Z,5.90
2023-08-13T23:02:03.697Z,4.88
2023-08-13T23:04:09.762Z,6.05
2023-08-13T23:06:18.990Z,4.53
2023-08-13T23:08:27.405Z,7.07
2023-08-13T23:10:34.893Z,4.68
2023-08-13T23:12:39.937Z,7.38
2023-08-13T23:14:45.110Z,5.45
2023-08-13T23:16:55.005Z,4.45
2023-08-13T23:18:57.693Z,8.10
2023-08-13T23:23:10.205Z,7.00
2023-08-13T23:25:15.973Z,4.85
2023-08-13T23:27:23.636Z,5.20
2023-08-13T23:29:29.029Z,5.88
2023-08-13T23:31:34.152Z,5.97
2023-08-13T23:33:41.570Z,7.03
2023-08-13T23:35:49.523Z,4.32
2023-08-13T23:37:58.023Z,5.60
2023-08-13T23:40:06.522Z,4.13
2023-08-13T23:42:11.529Z,5.45
2023-08-13T23:44:19.469Z,6.65
2023-08-13T23:46:25.831Z,7.93
2023-08-13T23:48:30.957Z,5.72
2023-08-13T23:50:42.659Z,5.68
2023-08-13T23:53:00.435Z,5.30
2023-08-13T23:55:06.637Z,7.70
2023-08-13T23:57:11.776Z,7.95
2023-08-13T23:59:19.539Z,6.95
